Time;durP1;ratioP1;P1;durP2;ratioP2;P2;SDS_P1;SDS_P2;PMS_P1;PMS_P2;Temp;Humidity;BMP_temperature;BMP_pressure;BME280_temperature;BME280_humidity;BME280_pressure;Samples;Min_cycle;Max_cycle;Signal;HPM_P1;HPM_P2
2023/01/24 00:01:01;;;;;;;;;;;;;;;5.56;91.40;101531.56;5083941;28;19933;-63
2023/01/24 00:03:26;;;;;;;;;;;;;;;5.58;90.38;101517.53;5082624;28;20343;-62
2023/01/24 00:05:51;;;;;;;;;;;;;;;5.56;91.08;101518.38;5090571;28;19999;-63
2023/01/24 00:08:19;;;;;;;;;;;;;;;5.60;91.44;101512.25;5092559;28;19968;-63
2023/01/24 00:10:45;;;;;;;;;;;;;;;5.62;90.35;101510.53;5089158;28;19931;-63
2023/01/24 00:13:11;;;;;;;;;;;;;;;5.58;90.27;101514.00;5071890;28;20283;-63
2023/01/24 00:15:36;;;;;;;;;;;;;;;5.51;90.92;101527.97;5070982;28;19953;-63
2023/01/24 00:18:02;;;;;;;;;;;;;;;5.44;90.99;101523.53;5082463;28;20531;-63
2023/01/24 00:20:27;;;;;;;;;;;;;;;5.50;91.15;101527.13;5093868;28;20015;-62
2023/01/24 00:22:52;;;;;;;;;;;;;;;5.54;91.03;101530.66;5094741;28;19934;-62
2023/01/24 00:25:18;;;;;;;;;;;;;;;5.24;90.07;101486.31;5079197;28;19938;-62
2023/01/24 00:27:43;;;;;;;;;;;;;;;5.48;90.08;101528.84;5077674;28;19984;-62
2023/01/24 00:30:09;;;;;;;;;;;;;;;5.51;90.54;101534.16;5084442;28;19935;-62
2023/01/24 00:32:34;;;;;;;;;;;;;;;5.54;90.64;101533.28;5075832;28;20413;-62
2023/01/24 00:34:59;;;;;;;;;;;;;;;5.55;90.31;101535.06;5090414;28;19946;-63
2023/01/24 00:37:25;;;;;;;;;;;;;;;5.51;90.57;101535.91;5095444;28;20021;-63
2023/01/24 00:39:50;;;;;;;;;;;;;;;5.50;89.75;101529.75;5091570;28;19936;-63
2023/01/24 00:42:16;;;;;;;;;;;;;;;5.55;89.98;101529.81;5093536;28;20355;-63
2023/01/24 00:44:41;;;;;;;;;;;;;;;5.51;89.85;101525.34;5084436;28;19934;-62
2023/01/24 00:47:06;;;;;;;;;;;;;;;5.54;89.88;101528.00;5075189;28;20004;-62
2023/01/24 00:49:31;;;;;;;;;;;;;;;5.55;90.41;101532.44;5076941;28;20597;-62
2023/01/24 00:51:57;;;;;;;;;;;;;;;5.43;89.98;101534.91;5075513;28;19963;-62
2023/01/24 00:54:22;;;;;;;;;;;;;;;5.48;91.25;101543.78;5074553;28;19951;-63
2023/01/24 00:56:47;;;;;;;;;;;;;;;5.53;90.16;101542.97;5081212;28;19937;-62
2023/01/24 00:59:13;;;;;;;;;;;;;;;5.45;90.46;101534.09;5089683;28;20035;-62
2023/01/24 01:01:38;;;;;;;;;;;;;;;5.51;90.39;101539.44;5074506;28;19940;-63
2023/01/24 01:04:04;;;;;;;;;;;;;;;5.50;90.34;101548.22;5084948;28;19945;-63
2023/01/24 01:06:29;;;;;;;;;;;;;;;5.51;90.65;101544.72;5090795;28;20333;-63
2023/01/24 01:08:54;;;;;;;;;;;;;;;5.50;90.44;101542.06;5094177;28;19970;-62
2023/01/24 01:11:20;;;;;;;;;;;;;;;5.57;90.19;101549.19;5086857;28;19941;-63
2023/01/24 01:13:48;;;;;;;;;;;;;;;5.57;90.09;101552.69;5074191;28;19946;-63
2023/01/24 01:16:16;;;;;;;;;;;;;;;5.50;90.04;101552.59;5074771;28;20010;-62
2023/01/24 01:18:42;;;;;;;;;;;;;;;5.53;90.14;101564.09;5076493;28;19964;-63
2023/01/24 01:21:07;;;;;;;;;;;;;;;5.44;90.11;101558.69;5074503;28;19985;-63
2023/01/24 01:23:32;;;;;;;;;;;;;;;5.49;90.43;101557.00;5082649;28;19987;-63
2023/01/24 01:25:58;;;;;;;;;;;;;;;5.48;89.72;101554.34;5094501;28;19932;-62
2023/01/24 01:28:23;;;;;;;;;;;;;;;5.44;89.71;101552.53;5092314;28;19934;-62
2023/01/24 01:30:51;;;;;;;;;;;;;;;5.50;89.87;101557.88;5091681;28;19939;-62
2023/01/24 01:33:16;;;;;;;;;;;;;;;5.53;89.83;101547.34;5075304;28;19981;-62
2023/01/24 01:35:42;;;;;;;;;;;;;;;5.57;89.98;101546.53;5082992;28;19957;-63
2023/01/24 01:38:07;;;;;;;;;;;;;;;5.47;90.31;101555.22;5073594;28;19933;-62
2023/01/24 01:40:32;;;;;;;;;;;;;;;5.34;90.23;101549.78;5075549;28;19938;-63
2023/01/24 01:42:57;;;;;;;;;;;;;;;5.39;90.08;101534.88;5074182;28;19952;-62
2023/01/24 01:45:28;;;;;;;;;;;;;;;5.39;90.53;101553.34;5073472;28;19934;-62
2023/01/24 01:47:54;;;;;;;;;;;;;;;5.45;90.10;101559.56;5075846;28;19942;-63
2023/01/24 01:50:36;;;;;;;;;;;;;;;5.40;89.77;101555.13;5072973;28;20334;-63
2023/01/24 01:53:02;;;;;;;;;;;;;;;5.36;90.10;101561.25;5073438;28;19933;-62
2023/01/24 01:55:31;;;;;;;;;;;;;;;5.33;89.93;101557.66;5080953;28;20358;-63
2023/01/24 01:57:57;;;;;;;;;;;;;;;5.42;89.98;101559.53;5091119;28;19934;-62
2023/01/24 02:00:37;;;;;;;;;;;;;;;5.37;89.96;101555.09;5093318;28;19945;-62
2023/01/24 02:05:53;;;;;;;;;;;;;;;5.34;90.48;101557.69;5078720;28;20568;-63
2023/01/24 02:08:20;;;;;;;;;;;;;;;5.36;90.06;101561.25;5093400;28;19972;-63
2023/01/24 02:13:29;;;;;;;;;;;;;;;5.36;90.05;101558.59;5073275;28;19937;-62
2023/01/24 02:16:04;;;;;;;;;;;;;;;5.34;89.98;101570.88;5073180;28;20379;-63
2023/01/24 02:18:30;;;;;;;;;;;;;;;5.27;90.53;101576.06;5075952;28;20035;-63
2023/01/24 02:20:55;;;;;;;;;;;;;;;5.31;90.38;101567.31;5072390;28;19937;-62
2023/01/24 02:23:43;;;;;;;;;;;;;;;5.42;89.88;101559.53;5080965;28;19931;-63
2023/01/24 02:26:28;;;;;;;;;;;;;;;5.42;89.60;101575.38;5072966;28;19968;-62
2023/01/24 02:28:55;;;;;;;;;;;;;;;5.38;90.08;101580.63;5074611;28;19936;-63
2023/01/24 02:31:21;;;;;;;;;;;;;;;5.33;90.23;101586.69;5072942;28;19925;-62
2023/01/24 02:33:46;;;;;;;;;;;;;;;5.35;90.27;101579.69;5077871;28;20425;-62
2023/01/24 02:36:19;;;;;;;;;;;;;;;5.31;90.05;101584.03;5084707;28;19937;-62
2023/01/24 02:38:46;;;;;;;;;;;;;;;5.32;90.28;101590.22;5093705;28;20049;-62
2023/01/24 02:41:11;;;;;;;;;;;;;;;5.36;90.04;101587.63;5091883;28;20356;-62
2023/01/24 02:43:41;;;;;;;;;;;;;;;5.33;89.78;101586.69;5074890;28;20083;-62
2023/01/24 02:46:06;;;;;;;;;;;;;;;5.38;89.23;101592.91;5072782;28;20445;-62
2023/01/24 02:48:32;;;;;;;;;;;;;;;5.45;89.28;101599.16;5075283;28;19930;-62
2023/01/24 02:53:41;;;;;;;;;;;;;;;5.25;90.11;101602.38;5072511;28;20578;-62
2023/01/24 02:58:52;;;;;;;;;;;;;;;5.27;90.28;101605.94;5077118;28;20309;-62
2023/01/24 03:01:17;;;;;;;;;;;;;;;5.17;90.94;101604.03;5075261;28;19933;-62
2023/01/24 03:03:43;;;;;;;;;;;;;;;5.14;90.80;101606.63;5080067;28;19937;-62
2023/01/24 03:06:10;;;;;;;;;;;;;;;5.18;91.00;101605.84;5077676;28;19953;-62
2023/01/24 03:08:35;;;;;;;;;;;;;;;5.16;91.35;101604.91;5091474;28;19987;-62
2023/01/24 03:11:01;;;;;;;;;;;;;;;5.17;90.90;101601.41;5091780;28;19935;-62
2023/01/24 03:35:18;;;;;;;;;;;;;;;5.20;91.38;101597.94;5091161;28;19954;-62
2023/01/24 03:40:27;;;;;;;;;;;;;;;5.14;91.84;101596.09;5086152;28;19953;-62
2023/01/24 03:42:53;;;;;;;;;;;;;;;5.16;91.46;101606.66;5072034;28;20382;-62
2023/01/24 03:45:19;;;;;;;;;;;;;;;5.16;90.77;101604.91;5072887;28;19937;-62
2023/01/24 03:47:54;;;;;;;;;;;;;;;5.27;91.36;101618.28;5091359;28;20630;-62
2023/01/24 03:53:14;;;;;;;;;;;;;;;5.22;91.53;101612.91;5071884;28;19937;-62
2023/01/24 03:55:39;;;;;;;;;;;;;;;5.19;91.95;101615.50;5076223;28;19954;-62
2023/01/24 03:58:05;;;;;;;;;;;;;;;5.23;91.29;101613.81;5095537;28;19943;-62
2023/01/24 04:00:31;;;;;;;;;;;;;;;5.24;91.38;101612.94;5095028;28;19939;-62
2023/01/24 04:02:56;;;;;;;;;;;;;;;5.20;91.62;101619.03;5084011;28;19944;-62
2023/01/24 04:05:21;;;;;;;;;;;;;;;5.24;91.95;101620.84;5095795;28;19975;-62
2023/01/24 04:07:47;;;;;;;;;;;;;;;5.27;91.72;101616.50;5095959;28;19936;-62
2023/01/24 04:10:13;;;;;;;;;;;;;;;5.22;91.98;101615.53;5091749;28;19931;-62
2023/01/24 04:12:39;;;;;;;;;;;;;;;5.24;92.01;101612.94;5094517;28;19988;-61
2023/01/24 04:15:04;;;;;;;;;;;;;;;5.24;91.67;101613.81;5091176;28;19957;-61
2023/01/24 04:17:30;;;;;;;;;;;;;;;5.23;92.28;101614.69;5094828;28;19938;-62
2023/01/24 04:19:55;;;;;;;;;;;;;;;5.28;92.37;101622.66;5090517;28;19944;-62
2023/01/24 04:22:20;;;;;;;;;;;;;;;5.30;91.64;101613.91;5074063;28;20013;-62
2023/01/24 04:24:46;;;;;;;;;;;;;;;5.16;91.63;101610.19;5074390;28;19932;-62
2023/01/24 04:27:11;;;;;;;;;;;;;;;5.17;92.53;101606.69;5088418;28;19938;-62
2023/01/24 04:29:37;;;;;;;;;;;;;;;5.25;91.82;101609.44;5095010;28;19979;-62
2023/01/24 04:32:02;;;;;;;;;;;;;;;5.28;92.26;101613.00;5088895;28;20494;-62
2023/01/24 04:34:27;;;;;;;;;;;;;;;5.30;92.31;101608.63;5088723;28;19989;-62
2023/01/24 04:36:53;;;;;;;;;;;;;;;5.33;91.73;101619.25;5094311;28;19929;-62
2023/01/24 04:39:19;;;;;;;;;;;;;;;5.30;91.61;101629.72;5077769;28;20372;-62
2023/01/24 04:41:44;;;;;;;;;;;;;;;5.32;91.99;101620.09;5073990;28;20015;-62
2023/01/24 04:44:09;;;;;;;;;;;;;;;5.34;92.24;101626.28;5078721;28;20051;-62
2023/01/24 04:46:34;;;;;;;;;;;;;;;5.28;91.74;101618.28;5093735;28;20412;-62
2023/01/24 04:49:00;;;;;;;;;;;;;;;5.24;92.37;101619.09;5094329;28;19930;-62
2023/01/24 04:51:25;;;;;;;;;;;;;;;5.27;91.72;101624.41;5094045;28;19962;-62
2023/01/24 04:53:50;;;;;;;;;;;;;;;5.26;92.15;101625.28;5084070;28;19937;-62
2023/01/24 04:56:15;;;;;;;;;;;;;;;5.33;91.95;101623.63;5073577;28;20430;-62
2023/01/24 04:58:41;;;;;;;;;;;;;;;5.25;92.70;101626.13;5075116;28;19933;-62
2023/01/24 05:01:06;;;;;;;;;;;;;;;5.28;92.48;101630.59;5093747;28;19939;-62
2023/01/24 05:03:31;;;;;;;;;;;;;;;5.25;92.48;101630.53;5093782;28;19940;-62
2023/01/24 05:05:56;;;;;;;;;;;;;;;5.27;92.33;101629.69;5079902;28;20000;-62
2023/01/24 05:08:22;;;;;;;;;;;;;;;5.25;92.39;101638.47;5077029;28;19934;-63
2023/01/24 05:10:48;;;;;;;;;;;;;;;5.24;92.97;101634.94;5090413;28;19935;-63
2023/01/24 05:13:13;;;;;;;;;;;;;;;5.29;92.72;101638.50;5074918;28;19938;-62
2023/01/24 05:15:45;;;;;;;;;;;;;;;5.32;92.06;101633.28;5090132;28;20489;-63
2023/01/24 05:18:10;;;;;;;;;;;;;;;5.29;92.47;101638.50;5094036;28;19931;-62
2023/01/24 05:20:35;;;;;;;;;;;;;;;5.31;93.02;101642.06;5093890;28;19956;-63
2023/01/24 05:23:00;;;;;;;;;;;;;;;5.35;92.42;101645.66;5091834;28;19974;-63
2023/01/24 05:25:26;;;;;;;;;;;;;;;5.30;92.80;101640.28;5091329;28;19930;-63
2023/01/24 05:27:51;;;;;;;;;;;;;;;5.32;92.43;101638.56;5093538;28;19928;-63
2023/01/24 05:30:16;;;;;;;;;;;;;;;5.31;92.29;101642.06;5077908;28;19942;-63
2023/01/24 05:32:42;;;;;;;;;;;;;;;5.30;92.28;101650.81;5087203;28;20404;-63
2023/01/24 05:35:08;;;;;;;;;;;;;;;5.34;93.10;101646.50;5087217;28;19960;-62
2023/01/24 05:37:35;;;;;;;;;;;;;;;5.29;93.27;101642.91;5073091;28;19983;-63
2023/01/24 05:40:01;;;;;;;;;;;;;;;5.30;92.60;101650.81;5073098;28;20434;-63
2023/01/24 05:42:26;;;;;;;;;;;;;;;5.26;92.83;101656.94;5075382;28;19995;-62
2023/01/24 05:44:51;;;;;;;;;;;;;;;5.31;92.68;101657.91;5073142;28;20386;-63
2023/01/24 05:47:16;;;;;;;;;;;;;;;5.33;92.80;101656.19;5083327;28;19958;-63
2023/01/24 05:49:42;;;;;;;;;;;;;;;5.30;92.66;101648.19;5093343;28;19928;-63
2023/01/24 05:52:07;;;;;;;;;;;;;;;5.31;93.11;101657.91;5092474;28;20449;-62
2023/01/24 05:54:32;;;;;;;;;;;;;;;5.33;92.76;101663.19;5075352;28;19955;-62
2023/01/24 05:56:57;;;;;;;;;;;;;;;5.33;93.34;101666.72;5073018;28;19940;-62
2023/01/24 05:59:23;;;;;;;;;;;;;;;5.28;93.44;101670.16;5075176;28;20388;-62
2023/01/24 06:01:48;;;;;;;;;;;;;;;5.31;92.76;101668.44;5083646;28;19961;-62
2023/01/24 06:04:13;;;;;;;;;;;;;;;5.34;93.65;101673.78;5093702;28;19954;-62
2023/01/24 06:06:39;;;;;;;;;;;;;;;5.26;93.16;101675.41;5090780;28;20345;-62
2023/01/24 06:09:04;;;;;;;;;;;;;;;5.34;93.32;101680.78;5073123;28;20075;-62
2023/01/24 06:11:29;;;;;;;;;;;;;;;5.32;93.55;101685.19;5092344;28;19942;-63
2023/01/24 06:13:55;;;;;;;;;;;;;;;5.32;92.94;101686.03;5080423;28;19936;-62
2023/01/24 06:16:21;;;;;;;;;;;;;;;5.34;93.20;101689.59;5085530;28;19931;-62
2023/01/24 06:18:47;;;;;;;;;;;;;;;5.31;93.59;101692.19;5088380;28;20442;-62
2023/01/24 06:21:12;;;;;;;;;;;;;;;5.33;93.41;101694.84;5071786;28;19932;-62
2023/01/24 06:23:37;;;;;;;;;;;;;;;5.31;93.74;101700.09;5072760;28;19935;-62
2023/01/24 06:26:03;;;;;;;;;;;;;;;5.27;92.98;101693.00;5091395;28;19931;-62
2023/01/24 06:28:28;;;;;;;;;;;;;;;5.29;93.24;101700.94;5088277;28;20298;-62
2023/01/24 06:30:59;;;;;;;;;;;;;;;5.38;92.78;101701.09;5092328;28;19934;-62
2023/01/24 06:33:40;;;;;;;;;;;;;;;5.30;93.02;101706.22;5090046;28;19936;-62
2023/01/24 06:36:29;;;;;;;;;;;;;;;5.34;92.99;101705.44;5072612;28;19946;-62
2023/01/24 06:38:55;;;;;;;;;;;;;;;5.36;92.74;101708.09;5072468;28;19928;-62
2023/01/24 06:41:20;;;;;;;;;;;;;;;5.28;93.25;101704.44;5086972;28;19986;-62
2023/01/24 06:43:46;;;;;;;;;;;;;;;5.28;93.09;101705.34;5092371;28;20100;-62
2023/01/24 06:46:12;;;;;;;;;;;;;;;5.34;92.58;101718.63;5084793;28;19933;-62
2023/01/24 06:48:37;;;;;;;;;;;;;;;5.35;92.04;101714.25;5072779;28;19982;-62
2023/01/24 06:51:03;;;;;;;;;;;;;;;5.33;92.94;101713.31;5072277;28;19963;-62
2023/01/24 06:53:28;;;;;;;;;;;;;;;5.25;93.53;101717.59;5074844;28;20426;-62
2023/01/24 06:55:53;;;;;;;;;;;;;;;5.30;92.86;101708.88;5072292;28;20435;-62
2023/01/24 06:58:19;;;;;;;;;;;;;;;5.25;93.19;101704.41;5072252;28;19930;-62
2023/01/24 07:00:44;;;;;;;;;;;;;;;5.22;93.36;101721.06;5073660;28;19966;-62
2023/01/24 07:03:09;;;;;;;;;;;;;;;5.21;93.87;101721.03;5057830;28;19931;-62
2023/01/24 07:05:35;;;;;;;;;;;;;;;5.23;93.73;101720.22;5092428;28;20716;-62
2023/01/24 07:08:01;;;;;;;;;;;;;;;5.23;93.81;101724.59;5092544;28;19986;-62
2023/01/24 07:10:28;;;;;;;;;;;;;;;5.29;93.10;101728.22;5087026;28;19972;-62
2023/01/24 07:12:53;;;;;;;;;;;;;;;5.35;93.04;101722.16;5078809;28;19938;-62
2023/01/24 07:15:19;;;;;;;;;;;;;;;5.37;93.00;101723.03;5081030;28;20424;-62
2023/01/24 07:17:44;;;;;;;;;;;;;;;5.37;93.16;101728.31;5079478;28;19940;-62
2023/01/24 07:20:11;;;;;;;;;;;;;;;5.35;92.96;101738.84;5079989;28;19936;-62
2023/01/24 07:22:37;;;;;;;;;;;;;;;5.31;93.32;101739.69;5089263;28;19964;-62
2023/01/24 07:25:03;;;;;;;;;;;;;;;5.28;93.61;101744.91;5090420;28;19938;-62
2023/01/24 07:27:29;;;;;;;;;;;;;;;5.21;93.21;101750.94;5090871;28;19930;-62
2023/01/24 07:29:54;;;;;;;;;;;;;;;5.27;92.98;101756.31;5088890;28;20282;-62
2023/01/24 07:32:19;;;;;;;;;;;;;;;5.24;93.44;101750.09;5096113;28;19939;-62
2023/01/24 07:34:44;;;;;;;;;;;;;;;5.27;92.79;101750.16;5092175;28;19951;-62
2023/01/24 07:37:10;;;;;;;;;;;;;;;5.32;93.20;101746.72;5096216;28;19930;-62
2023/01/24 07:39:35;;;;;;;;;;;;;;;5.28;93.19;101760.75;5077774;28;20023;-62
2023/01/24 07:42:00;;;;;;;;;;;;;;;5.32;92.97;101753.78;5081368;28;19982;-62
2023/01/24 07:44:25;;;;;;;;;;;;;;;5.33;93.31;101764.34;5086428;28;19940;-62
2023/01/24 07:46:51;;;;;;;;;;;;;;;5.30;92.87;101768.69;5087828;28;20170;-62
2023/01/24 07:49:16;;;;;;;;;;;;;;;5.30;93.27;101772.19;5060880;28;20388;-61
2023/01/24 07:51:42;;;;;;;;;;;;;;;5.34;93.06;101768.75;5089957;28;20281;-61
2023/01/24 07:54:07;;;;;;;;;;;;;;;5.32;93.04;101770.47;5078310;28;19958;-61
2023/01/24 07:56:32;;;;;;;;;;;;;;;5.33;92.93;101776.63;5073640;28;19931;-61
2023/01/24 07:58:58;;;;;;;;;;;;;;;5.35;92.94;101775.78;5077597;28;19936;-61
2023/01/24 08:01:24;;;;;;;;;;;;;;;5.38;92.85;101774.97;5092738;28;19935;-62
2023/01/24 08:03:50;;;;;;;;;;;;;;;5.32;93.17;101778.38;5089439;28;20026;-62
2023/01/24 08:06:15;;;;;;;;;;;;;;;5.36;93.36;101781.97;5085565;28;20478;-62
2023/01/24 08:08:41;;;;;;;;;;;;;;;5.46;93.63;101783.00;5078539;28;19981;-62
2023/01/24 08:11:06;;;;;;;;;;;;;;;5.47;93.06;101779.50;5081705;28;20352;-62
2023/01/24 08:13:31;;;;;;;;;;;;;;;5.32;92.69;101770.47;5089863;28;19928;-62
2023/01/24 08:15:58;;;;;;;;;;;;;;;5.40;93.10;101774.09;5090055;28;19964;-62
2023/01/24 08:18:23;;;;;;;;;;;;;;;5.50;92.69;101791.00;5093720;28;19959;-62
2023/01/24 08:20:49;;;;;;;;;;;;;;;5.56;92.76;101787.56;5080471;28;20411;-62
2023/01/24 08:23:14;;;;;;;;;;;;;;;5.56;92.52;101792.84;5072587;28;19930;-62
2023/01/24 08:25:40;;;;;;;;;;;;;;;5.53;92.68;101792.78;5083551;28;19930;-62
2023/01/24 08:28:05;;;;;;;;;;;;;;;5.59;91.92;101790.22;5089346;28;19938;-62
2023/01/24 08:30:30;;;;;;;;;;;;;;;5.64;91.77;101791.19;5093693;28;19934;-62
2023/01/24 08:32:59;;;;;;;;;;;;;;;5.59;92.38;101795.50;5086918;28;20393;-62
2023/01/24 08:35:24;;;;;;;;;;;;;;;5.53;91.92;101801.59;5089427;28;20018;-62
2023/01/24 08:37:50;;;;;;;;;;;;;;;5.52;92.13;101793.66;5074553;28;20394;-62
2023/01/24 08:40:15;;;;;;;;;;;;;;;5.45;91.66;101791.78;5086616;28;19932;-62
2023/01/24 08:42:40;;;;;;;;;;;;;;;5.54;91.71;101797.19;5091279;28;19934;-62
2023/01/24 08:45:06;;;;;;;;;;;;;;;5.52;91.83;101799.81;5086304;28;19960;-61
2023/01/24 08:47:31;;;;;;;;;;;;;;;5.64;91.08;101794.72;5082320;28;19933;-62
2023/01/24 08:49:56;;;;;;;;;;;;;;;5.58;91.76;101793.75;5090889;28;19932;-61
2023/01/24 08:52:22;;;;;;;;;;;;;;;5.67;91.74;101800.06;5092582;28;19941;-61
2023/01/24 08:54:47;;;;;;;;;;;;;;;5.65;90.87;101803.56;5085047;28;19977;-62
2023/01/24 08:57:12;;;;;;;;;;;;;;;5.66;91.21;101813.22;5074381;28;20080;-61
2023/01/24 08:59:37;;;;;;;;;;;;;;;5.64;91.65;101809.69;5076480;28;19943;-61
2023/01/24 09:02:03;;;;;;;;;;;;;;;5.69;90.91;101808.88;5091012;28;20325;-62
2023/01/24 09:04:28;;;;;;;;;;;;;;;5.67;91.17;101810.63;5094061;28;19945;-62
2023/01/24 09:06:54;;;;;;;;;;;;;;;5.69;91.27;101823.84;5082347;28;19934;-61
2023/01/24 09:09:19;;;;;;;;;;;;;;;5.64;91.60;101815.84;5075762;28;20002;-62
2023/01/24 09:11:45;;;;;;;;;;;;;;;5.64;91.07;101823.78;5076442;28;19980;-62
2023/01/24 09:14:10;;;;;;;;;;;;;;;5.64;90.80;101815.84;5094197;28;19958;-62
2023/01/24 09:16:35;;;;;;;;;;;;;;;5.62;91.20;101821.97;5093046;28;19962;-61
2023/01/24 09:19:00;;;;;;;;;;;;;;;5.63;91.33;101807.91;5080145;28;19942;-61
2023/01/24 09:21:26;;;;;;;;;;;;;;;5.69;91.87;101823.84;5073884;28;19954;-62
2023/01/24 09:23:53;;;;;;;;;;;;;;;5.68;91.19;101817.69;5073660;28;19932;-61
2023/01/24 09:26:18;;;;;;;;;;;;;;;5.67;90.69;101820.31;5073766;28;19928;-62
2023/01/24 09:28:43;;;;;;;;;;;;;;;5.76;91.35;101820.44;5075969;28;19934;-62
2023/01/24 09:31:09;;;;;;;;;;;;;;;5.82;90.74;101820.53;5084832;28;19943;-62
2023/01/24 09:33:35;;;;;;;;;;;;;;;5.95;90.34;101827.78;5086573;28;20387;-62
2023/01/24 09:36:01;;;;;;;;;;;;;;;6.01;90.05;101819.97;5093508;28;20295;-62
2023/01/24 09:38:28;;;;;;;;;;;;;;;5.96;90.01;101822.56;5091155;28;20212;-62
2023/01/24 09:40:57;;;;;;;;;;;;;;;5.97;90.37;101823.44;5092713;28;20291;-62
2023/01/24 09:43:43;;;;;;;;;;;;;;;6.06;90.15;101826.22;5093417;28;19936;-62
2023/01/24 09:46:23;;;;;;;;;;;;;;;6.02;89.22;101821.75;5078432;28;19962;-62
2023/01/24 09:48:52;;;;;;;;;;;;;;;6.09;89.34;101823.63;5073360;28;19942;-62
2023/01/24 09:51:24;;;;;;;;;;;;;;;6.14;88.80;101824.56;5075135;28;19963;-62
2023/01/24 09:53:51;;;;;;;;;;;;;;;6.16;89.18;101831.63;5073326;28;19944;-62
2023/01/24 09:56:30;;;;;;;;;;;;;;;6.23;89.37;101836.16;5073096;28;20002;-62
2023/01/24 09:59:10;;;;;;;;;;;;;;;6.28;88.43;101838.84;5072410;28;22167;-62
2023/01/24 10:01:40;;;;;;;;;;;;;;;6.26;88.07;101830.03;5075106;28;19951;-62
2023/01/24 10:04:13;;;;;;;;;;;;;;;6.50;88.26;101825.97;5084079;28;19930;-62
2023/01/24 10:06:39;;;;;;;;;;;;;;;6.55;87.43;101828.66;5082627;28;19960;-62
2023/01/24 10:09:05;;;;;;;;;;;;;;;6.70;87.81;101829.69;5073103;28;19934;-62
2023/01/24 10:11:36;;;;;;;;;;;;;;;6.90;85.74;101824.66;5073896;28;20046;-62
2023/01/24 10:14:20;;;;;;;;;;;;;;;7.08;85.96;101816.94;5073416;28;20306;-62
2023/01/24 10:16:45;;;;;;;;;;;;;;;7.00;83.64;101813.28;5085561;28;19927;-62
2023/01/24 10:19:21;;;;;;;;;;;;;;;7.04;83.54;101817.75;5093208;28;19930;-62
2023/01/24 10:22:05;;;;;;;;;;;;;;;7.09;84.07;101808.09;5083676;28;20023;-62
2023/01/24 10:24:32;;;;;;;;;;;;;;;7.36;83.57;101808.38;5073962;28;19930;-62
2023/01/24 10:26:59;;;;;;;;;;;;;;;7.49;82.78;101804.97;5093060;28;20048;-62
2023/01/24 10:29:26;;;;;;;;;;;;;;;7.33;82.10;101803.03;5092923;28;19934;-62
2023/01/24 10:31:56;;;;;;;;;;;;;;;7.18;82.43;101807.31;5089263;28;19938;-62
2023/01/24 10:34:28;;;;;;;;;;;;;;;7.10;82.95;101799.28;5092661;28;20330;-62
2023/01/24 10:36:57;;;;;;;;;;;;;;;7.00;84.17;101804.50;5080061;28;20275;-62
2023/01/24 10:39:23;;;;;;;;;;;;;;;7.14;83.79;101801.09;5072462;28;19938;-62
2023/01/24 10:41:48;;;;;;;;;;;;;;;7.04;83.83;101798.34;5076410;28;19984;-62
2023/01/24 10:44:15;;;;;;;;;;;;;;;6.95;83.12;101793.88;5092105;28;19944;-62
2023/01/24 10:46:40;;;;;;;;;;;;;;;6.92;83.12;101796.44;5091854;28;19942;-62
2023/01/24 10:49:08;;;;;;;;;;;;;;;6.75;83.73;101798.06;5077498;28;20657;-62
2023/01/24 10:51:33;;;;;;;;;;;;;;;6.82;84.64;101791.94;5071218;28;19960;-62
2023/01/24 10:54:02;;;;;;;;;;;;;;;6.81;84.50;101794.56;5073459;28;20553;-62
2023/01/24 10:56:27;;;;;;;;;;;;;;;6.91;85.17;101793.78;5071318;28;19936;-62
2023/01/24 10:59:03;;;;;;;;;;;;;;;6.95;84.89;101792.97;5071661;28;19972;-62
2023/01/24 11:01:49;;;;;;;;;;;;;;;6.94;84.30;101796.47;5074131;28;19939;-62
2023/01/24 11:04:34;;;;;;;;;;;;;;;6.93;84.43;101802.66;5083559;28;19935;-63
2023/01/24 11:07:01;;;;;;;;;;;;;;;6.88;83.45;101797.31;5077146;28;19979;-63
2023/01/24 11:09:30;;;;;;;;;;;;;;;6.91;83.50;101799.09;5090742;28;19964;-58
2023/01/24 11:11:56;;;;;;;;;;;;;;;6.80;84.03;101772.53;5087125;28;20031;-63
2023/01/24 11:14:24;;;;;;;;;;;;;;;7.04;83.73;101803.63;5090801;28;20003;-62
2023/01/24 11:16:51;;;;;;;;;;;;;;;7.16;84.17;101794.06;5090929;28;19942;-62
2023/01/24 11:19:30;;;;;;;;;;;;;;;7.14;84.13;101790.53;5091399;28;19937;-61
2023/01/24 11:22:00;;;;;;;;;;;;;;;7.18;83.84;101797.59;5080060;28;20097;-62
2023/01/24 11:24:26;;;;;;;;;;;;;;;7.20;83.30;101795.00;5084971;28;19934;-62
2023/01/24 11:26:54;;;;;;;;;;;;;;;7.14;82.96;101801.09;5087117;28;19936;-62
2023/01/24 11:29:20;;;;;;;;;;;;;;;7.08;83.15;101795.75;5080123;28;19942;-62
2023/01/24 11:31:51;;;;;;;;;;;;;;;6.95;83.34;101798.25;5071117;28;19927;-61
2023/01/24 11:34:17;;;;;;;;;;;;;;;6.98;84.21;101798.28;5080016;28;19959;-61
2023/01/24 11:36:51;;;;;;;;;;;;;;;6.99;83.48;101789.47;5081037;28;20425;-61
2023/01/24 11:39:16;;;;;;;;;;;;;;;7.09;84.46;101781.66;5078886;28;19939;-62
2023/01/24 11:42:05;;;;;;;;;;;;;;;7.05;83.89;101794.84;5088354;28;19931;-62
2023/01/24 11:44:31;;;;;;;;;;;;;;;6.98;84.11;101793.91;5057602;28;19969;-61
2023/01/24 11:47:02;;;;;;;;;;;;;;;6.96;83.12;101787.69;5070814;28;19935;-61
2023/01/24 11:49:31;;;;;;;;;;;;;;;6.98;84.72;101788.59;5073494;28;19936;-62
2023/01/24 11:52:16;;;;;;;;;;;;;;;7.06;84.51;101771.03;5070857;28;20022;-61
2023/01/24 11:54:57;;;;;;;;;;;;;;;6.99;84.59;101790.38;5073027;28;19961;-61
2023/01/24 11:57:30;;;;;;;;;;;;;;;7.02;84.53;101792.16;5071024;28;19939;-62
2023/01/24 12:00:02;;;;;;;;;;;;;;;7.05;84.42;101779.84;5071343;28;19957;-62
2023/01/24 12:02:40;;;;;;;;;;;;;;;7.14;84.28;101772.00;5070416;28;19964;-62
2023/01/24 12:05:05;;;;;;;;;;;;;;;7.14;83.64;101772.00;5089958;28;19995;-61
2023/01/24 12:07:37;;;;;;;;;;;;;;;7.15;83.38;101771.13;5091026;28;19988;-62
2023/01/24 12:10:18;;;;;;;;;;;;;;;7.16;83.47;101772.91;5077356;28;19938;-61
2023/01/24 12:12:48;;;;;;;;;;;;;;;7.18;83.17;101773.78;5070926;28;20420;-61
2023/01/24 12:15:19;;;;;;;;;;;;;;;7.31;83.76;101772.16;5079826;28;19958;-61
2023/01/24 12:17:53;;;;;;;;;;;;;;;7.17;83.38;101766.72;5094418;28;20024;-62
2023/01/24 12:20:34;;;;;;;;;;;;;;;7.15;82.72;101771.13;5094611;28;19931;-62
2023/01/24 12:23:03;;;;;;;;;;;;;;;7.10;83.28;101762.25;5094548;28;19930;-61
2023/01/24 12:25:34;;;;;;;;;;;;;;;7.08;83.34;101761.38;5083562;28;19935;-61
2023/01/24 12:28:04;;;;;;;;;;;;;;;7.13;84.18;101762.31;5094544;28;19931;-62
2023/01/24 12:30:51;;;;;;;;;;;;;;;7.13;83.39;101764.06;5090041;28;20383;-62
2023/01/24 12:33:34;;;;;;;;;;;;;;;7.10;82.94;101764.88;5093921;28;19932;-62
2023/01/24 12:36:08;;;;;;;;;;;;;;;7.18;83.80;101767.63;5090348;28;20474;-62
2023/01/24 12:39:00;;;;;;;;;;;;;;;7.11;84.20;101757.84;5093857;28;19939;-61
2023/01/24 12:41:33;;;;;;;;;;;;;;;7.06;83.80;101755.16;5086935;28;20759;-62
2023/01/24 12:44:17;;;;;;;;;;;;;;;7.05;82.99;101760.44;5093726;28;19936;-62
2023/01/24 12:46:47;;;;;;;;;;;;;;;7.08;83.64;101757.81;5094034;28;19951;-62
2023/01/24 12:49:19;;;;;;;;;;;;;;;7.13;83.77;101751.72;5090806;28;20295;-61
2023/01/24 12:51:53;;;;;;;;;;;;;;;7.16;83.51;101756.13;5093759;28;19972;-61
2023/01/24 12:54:21;;;;;;;;;;;;;;;7.10;83.99;101753.44;5094224;28;20024;-61
2023/01/24 12:56:56;;;;;;;;;;;;;;;7.22;83.92;101756.16;5092192;28;19935;-62
2023/01/24 12:59:25;;;;;;;;;;;;;;;7.14;83.47;101753.47;5073661;28;19930;-62
2023/01/24 13:01:59;;;;;;;;;;;;;;;7.22;83.69;101759.72;5073664;28;20336;-61
2023/01/24 13:04:39;;;;;;;;;;;;;;;7.26;84.20;101753.59;5089579;28;20027;-61
2023/01/24 13:07:15;;;;;;;;;;;;;;;7.23;82.91;101760.63;5093727;28;19989;-62
2023/01/24 13:09:43;;;;;;;;;;;;;;;7.22;83.35;101759.72;5083084;28;19939;-62
2023/01/24 13:12:12;;;;;;;;;;;;;;;7.12;82.83;101759.59;5073190;28;19933;-62
2023/01/24 13:14:43;;;;;;;;;;;;;;;7.13;83.75;101761.41;5079060;28;19961;-62
2023/01/24 13:17:08;;;;;;;;;;;;;;;7.18;83.95;101754.41;5093437;28;19987;-62
2023/01/24 13:19:43;;;;;;;;;;;;;;;7.25;83.57;101746.50;5089375;28;19970;-62
2023/01/24 13:22:27;;;;;;;;;;;;;;;7.28;82.85;101757.13;5093263;28;19930;-62
2023/01/24 13:24:55;;;;;;;;;;;;;;;7.15;82.49;101757.03;5090093;28;19943;-61
2023/01/24 13:27:30;;;;;;;;;;;;;;;7.10;83.86;101756.09;5092583;28;19973;-61
2023/01/24 13:29:55;;;;;;;;;;;;;;;6.93;83.15;101753.28;5085910;28;19946;-61